sensor_id;sensor_type;location;lat;lon;timestamp;pressure;altitude;pressure_sealevel;temperature
74321;BMP280;62738;45.772;4.804;2023-03-31T00:00:05;99440.31;;;18.75
74321;BMP280;62738;45.772;4.804;2023-03-31T00:02:38;99430.81;;;19.14
74321;BMP280;62738;45.772;4.804;2023-03-31T00:05:10;99425.38;;;18.86
74321;BMP280;62738;45.772;4.804;2023-03-31T00:07:37;99421.00;;;18.83
74321;BMP280;62738;45.772;4.804;2023-03-31T00:10:04;99411.03;;;18.80
74321;BMP280;62738;45.772;4.804;2023-03-31T00:12:44;99411.59;;;18.47
74321;BMP280;62738;45.772;4.804;2023-03-31T00:15:11;99401.16;;;18.79
74321;BMP280;62738;45.772;4.804;2023-03-31T00:17:37;99401.88;;;18.80
74321;BMP280;62738;45.772;4.804;2023-03-31T00:20:05;99392.22;;;18.69
74321;BMP280;62738;45.772;4.804;2023-03-31T00:22:34;99399.41;;;18.57
74321;BMP280;62738;45.772;4.804;2023-03-31T00:25:04;99403.47;;;18.53
74321;BMP280;62738;45.772;4.804;2023-03-31T00:27:31;99389.63;;;18.58
74321;BMP280;62738;45.772;4.804;2023-03-31T00:29:58;99392.13;;;18.51
74321;BMP280;62738;45.772;4.804;2023-03-31T00:32:25;99364.34;;;18.73
74321;BMP280;62738;45.772;4.804;2023-03-31T00:34:51;99349.38;;;18.69
74321;BMP280;62738;45.772;4.804;2023-03-31T00:37:18;99341.63;;;18.38
74321;BMP280;62738;45.772;4.804;2023-03-31T00:39:45;99337.78;;;18.45
74321;BMP280;62738;45.772;4.804;2023-03-31T00:42:12;99333.88;;;18.52
74321;BMP280;62738;45.772;4.804;2023-03-31T00:47:53;99311.75;;;18.44
74321;BMP280;62738;45.772;4.804;2023-03-31T00:50:31;99331.41;;;18.29
74321;BMP280;62738;45.772;4.804;2023-03-31T00:53:02;99318.09;;;18.29
74321;BMP280;62738;45.772;4.804;2023-03-31T00:55:39;99305.94;;;18.25
74321;BMP280;62738;45.772;4.804;2023-03-31T00:58:08;99302.69;;;18.30
74321;BMP280;62738;45.772;4.804;2023-03-31T01:03:15;99308.44;;;18.19
74321;BMP280;62738;45.772;4.804;2023-03-31T01:05:45;99300.88;;;18.21
74321;BMP280;62738;45.772;4.804;2023-03-31T01:08:13;99301.97;;;18.00
74321;BMP280;62738;45.772;4.804;2023-03-31T01:10:45;99290.75;;;18.00
74321;BMP280;62738;45.772;4.804;2023-03-31T01:13:14;99278.13;;;18.31
74321;BMP280;62738;45.772;4.804;2023-03-31T01:15:42;99282.81;;;18.11
74321;BMP280;62738;45.772;4.804;2023-03-31T01:18:10;99269.72;;;17.86
74321;BMP280;62738;45.772;4.804;2023-03-31T01:20:57;99278.78;;;17.84
74321;BMP280;62738;45.772;4.804;2023-03-31T01:29:03;99278.13;;;17.86
74321;BMP280;62738;45.772;4.804;2023-03-31T01:34:23;99267.97;;;17.79
74321;BMP280;62738;45.772;4.804;2023-03-31T01:43:00;99250.22;;;17.74
74321;BMP280;62738;45.772;4.804;2023-03-31T01:48:48;99212.78;;;17.54
74321;BMP280;62738;45.772;4.804;2023-03-31T01:51:35;99219.63;;;17.51
74321;BMP280;62738;45.772;4.804;2023-03-31T01:55:23;99194.59;;;17.84
74321;BMP280;62738;45.772;4.804;2023-03-31T01:57:31;99214.44;;;17.30
74321;BMP280;62738;45.772;4.804;2023-03-31T02:00:07;99208.56;;;17.39
74321;BMP280;62738;45.772;4.804;2023-03-31T02:02:37;99195.84;;;17.23
74321;BMP280;62738;45.772;4.804;2023-03-31T02:05:10;99196.81;;;17.43
74321;BMP280;62738;45.772;4.804;2023-03-31T02:07:49;99192.63;;;17.57
74321;BMP280;62738;45.772;4.804;2023-03-31T02:10:19;99183.78;;;17.34
74321;BMP280;62738;45.772;4.804;2023-03-31T02:12:48;99183.16;;;17.22
74321;BMP280;62738;45.772;4.804;2023-03-31T02:15:20;99170.72;;;17.25
74321;BMP280;62738;45.772;4.804;2023-03-31T02:17:50;99180.47;;;17.24
74321;BMP280;62738;45.772;4.804;2023-03-31T02:20:21;99168.41;;;17.35
74321;BMP280;62738;45.772;4.804;2023-03-31T02:22:52;99165.59;;;17.05
74321;BMP280;62738;45.772;4.804;2023-03-31T02:25:21;99156.38;;;17.32
74321;BMP280;62738;45.772;4.804;2023-03-31T02:27:54;99156.28;;;17.30
74321;BMP280;62738;45.772;4.804;2023-03-31T02:30:26;99175.69;;;17.26
74321;BMP280;62738;45.772;4.804;2023-03-31T02:32:54;99167.69;;;17.34
74321;BMP280;62738;45.772;4.804;2023-03-31T02:35:21;99167.50;;;17.46
74321;BMP280;62738;45.772;4.804;2023-03-31T02:37:50;99170.09;;;17.55
74321;BMP280;62738;45.772;4.804;2023-03-31T02:40:20;99166.47;;;17.53
74321;BMP280;62738;45.772;4.804;2023-03-31T02:42:48;99161.72;;;17.42
74321;BMP280;62738;45.772;4.804;2023-03-31T02:45:47;99172.31;;;17.43
74321;BMP280;62738;45.772;4.804;2023-03-31T02:59:15;99162.81;;;17.35
74321;BMP280;62738;45.772;4.804;2023-03-31T03:07:44;99139.56;;;17.48
74321;BMP280;62738;45.772;4.804;2023-03-31T03:10:24;99139.69;;;17.21
74321;BMP280;62738;45.772;4.804;2023-03-31T03:13:15;99133.31;;;17.34
74321;BMP280;62738;45.772;4.804;2023-03-31T03:15:46;99133.41;;;16.93
74321;BMP280;62738;45.772;4.804;2023-03-31T03:18:15;99125.31;;;16.99
74321;BMP280;62738;45.772;4.804;2023-03-31T03:20:42;99120.81;;;17.21
74321;BMP280;62738;45.772;4.804;2023-03-31T03:23:14;99122.63;;;17.30
74321;BMP280;62738;45.772;4.804;2023-03-31T03:25:41;99117.53;;;17.27
74321;BMP280;62738;45.772;4.804;2023-03-31T03:28:07;99111.03;;;17.22
74321;BMP280;62738;45.772;4.804;2023-03-31T03:30:34;99107.78;;;17.28
74321;BMP280;62738;45.772;4.804;2023-03-31T03:33:01;99117.16;;;17.19
74321;BMP280;62738;45.772;4.804;2023-03-31T03:35:28;99102.59;;;17.22
74321;BMP280;62738;45.772;4.804;2023-03-31T03:37:55;99116.38;;;17.02
74321;BMP280;62738;45.772;4.804;2023-03-31T03:40:22;99116.56;;;17.06
74321;BMP280;62738;45.772;4.804;2023-03-31T03:42:48;99123.13;;;16.97
74321;BMP280;62738;45.772;4.804;2023-03-31T03:45:15;99122.06;;;16.75
74321;BMP280;62738;45.772;4.804;2023-03-31T03:47:42;99134.88;;;16.94
74321;BMP280;62738;45.772;4.804;2023-03-31T03:50:09;99116.41;;;16.89
74321;BMP280;62738;45.772;4.804;2023-03-31T03:52:36;99106.75;;;16.92
74321;BMP280;62738;45.772;4.804;2023-03-31T03:55:03;99115.25;;;16.94
74321;BMP280;62738;45.772;4.804;2023-03-31T03:57:30;99122.19;;;17.06
74321;BMP280;62738;45.772;4.804;2023-03-31T03:59:57;99109.25;;;16.99
74321;BMP280;62738;45.772;4.804;2023-03-31T04:02:24;99100.94;;;16.88
74321;BMP280;62738;45.772;4.804;2023-03-31T04:04:53;99113.31;;;17.12
74321;BMP280;62738;45.772;4.804;2023-03-31T04:07:20;99119.84;;;17.01
74321;BMP280;62738;45.772;4.804;2023-03-31T04:09:47;99107.28;;;17.18
74321;BMP280;62738;45.772;4.804;2023-03-31T04:12:13;99106.63;;;17.33
74321;BMP280;62738;45.772;4.804;2023-03-31T04:14:40;99076.84;;;16.96
74321;BMP280;62738;45.772;4.804;2023-03-31T04:17:07;99090.41;;;17.16
74321;BMP280;62738;45.772;4.804;2023-03-31T04:19:35;99107.91;;;17.16
74321;BMP280;62738;45.772;4.804;2023-03-31T04:22:03;99110.88;;;17.04
74321;BMP280;62738;45.772;4.804;2023-03-31T04:24:30;99129.25;;;17.07
74321;BMP280;62738;45.772;4.804;2023-03-31T04:26:59;99107.06;;;17.27
74321;BMP280;62738;45.772;4.804;2023-03-31T04:29:26;99103.03;;;17.17
74321;BMP280;62738;45.772;4.804;2023-03-31T04:31:54;99104.03;;;17.07
74321;BMP280;62738;45.772;4.804;2023-03-31T04:34:25;99111.38;;;17.14
74321;BMP280;62738;45.772;4.804;2023-03-31T04:37:00;99110.41;;;17.24
74321;BMP280;62738;45.772;4.804;2023-03-31T04:39:28;99100.03;;;17.42
74321;BMP280;62738;45.772;4.804;2023-03-31T04:41:59;99113.94;;;17.24
74321;BMP280;62738;45.772;4.804;2023-03-31T04:44:27;99117.69;;;17.15
74321;BMP280;62738;45.772;4.804;2023-03-31T04:46:54;99116.19;;;17.28
74321;BMP280;62738;45.772;4.804;2023-03-31T04:49:21;99114.50;;;17.36
74321;BMP280;62738;45.772;4.804;2023-03-31T04:51:48;99101.63;;;17.31
74321;BMP280;62738;45.772;4.804;2023-03-31T04:54:15;99096.16;;;17.49
74321;BMP280;62738;45.772;4.804;2023-03-31T04:56:42;99085.94;;;17.40
74321;BMP280;62738;45.772;4.804;2023-03-31T04:59:08;99095.88;;;17.43
74321;BMP280;62738;45.772;4.804;2023-03-31T05:01:35;99093.88;;;17.00
74321;BMP280;62738;45.772;4.804;2023-03-31T05:04:05;99094.75;;;17.19
74321;BMP280;62738;45.772;4.804;2023-03-31T05:06:32;99080.97;;;17.09
74321;BMP280;62738;45.772;4.804;2023-03-31T05:08:59;99102.72;;;16.95
74321;BMP280;62738;45.772;4.804;2023-03-31T05:11:25;99099.56;;;17.02
74321;BMP280;62738;45.772;4.804;2023-03-31T05:13:53;99101.50;;;17.13
74321;BMP280;62738;45.772;4.804;2023-03-31T05:16:19;99100.41;;;17.05
74321;BMP280;62738;45.772;4.804;2023-03-31T05:18:46;99105.22;;;17.18
74321;BMP280;62738;45.772;4.804;2023-03-31T05:21:18;99104.50;;;17.18
74321;BMP280;62738;45.772;4.804;2023-03-31T05:23:46;99103.75;;;17.31
74321;BMP280;62738;45.772;4.804;2023-03-31T05:26:13;99120.59;;;17.17
74321;BMP280;62738;45.772;4.804;2023-03-31T05:28:40;99119.84;;;17.30
74321;BMP280;62738;45.772;4.804;2023-03-31T05:31:08;99122.63;;;17.30
74321;BMP280;62738;45.772;4.804;2023-03-31T05:33:35;99134.31;;;17.40
74321;BMP280;62738;45.772;4.804;2023-03-31T05:36:10;99139.13;;;17.38
74321;BMP280;62738;45.772;4.804;2023-03-31T05:38:39;99128.47;;;17.50
74321;BMP280;62738;45.772;4.804;2023-03-31T05:41:06;99127.75;;;17.49
74321;BMP280;62738;45.772;4.804;2023-03-31T05:43:35;99134.44;;;17.58
74321;BMP280;62738;45.772;4.804;2023-03-31T05:46:02;99140.06;;;17.58
74321;BMP280;62738;45.772;4.804;2023-03-31T05:48:30;99143.25;;;17.66
74321;BMP280;62738;45.772;4.804;2023-03-31T05:50:57;99141.13;;;17.51
74321;BMP280;62738;45.772;4.804;2023-03-31T05:53:25;99150.91;;;17.50
74321;BMP280;62738;45.772;4.804;2023-03-31T05:56:03;99149.81;;;17.57
74321;BMP280;62738;45.772;4.804;2023-03-31T05:58:35;99129.22;;;17.66
74321;BMP280;62738;45.772;4.804;2023-03-31T06:01:10;99127.88;;;17.67
74321;BMP280;62738;45.772;4.804;2023-03-31T06:03:39;99139.19;;;17.69
74321;BMP280;62738;45.772;4.804;2023-03-31T06:06:07;99138.94;;;17.94
74321;BMP280;62738;45.772;4.804;2023-03-31T06:08:35;99123.53;;;17.95
74321;BMP280;62738;45.772;4.804;2023-03-31T06:11:07;99130.69;;;17.83
74321;BMP280;62738;45.772;4.804;2023-03-31T06:13:35;99115.72;;;18.10
74321;BMP280;62738;45.772;4.804;2023-03-31T06:16:03;99137.38;;;17.91
74321;BMP280;62738;45.772;4.804;2023-03-31T06:18:32;99149.31;;;17.76
74321;BMP280;62738;45.772;4.804;2023-03-31T06:20:59;99165.53;;;17.78
74321;BMP280;62738;45.772;4.804;2023-03-31T06:23:26;99165.41;;;17.76
74321;BMP280;62738;45.772;4.804;2023-03-31T06:25:53;99160.53;;;17.76
74321;BMP280;62738;45.772;4.804;2023-03-31T06:28:24;99172.16;;;17.84
74321;BMP280;62738;45.772;4.804;2023-03-31T06:30:50;99157.56;;;17.88
74321;BMP280;62738;45.772;4.804;2023-03-31T06:33:17;99167.97;;;17.85
74321;BMP280;62738;45.772;4.804;2023-03-31T06:35:43;99167.75;;;17.66
74321;BMP280;62738;45.772;4.804;2023-03-31T06:38:10;99158.66;;;17.65
74321;BMP280;62738;45.772;4.804;2023-03-31T06:40:37;99142.47;;;17.95
74321;BMP280;62738;45.772;4.804;2023-03-31T06:43:04;99151.72;;;17.52
74321;BMP280;62738;45.772;4.804;2023-03-31T06:45:30;99150.56;;;17.57
74321;BMP280;62738;45.772;4.804;2023-03-31T06:47:57;99156.97;;;17.89
74321;BMP280;62738;45.772;4.804;2023-03-31T06:50:23;99145.63;;;17.87
74321;BMP280;62738;45.772;4.804;2023-03-31T06:52:50;99138.75;;;18.22
74321;BMP280;62738;45.772;4.804;2023-03-31T06:55:20;99135.84;;;18.20
74321;BMP280;62738;45.772;4.804;2023-03-31T06:57:47;99155.16;;;18.27
74321;BMP280;62738;45.772;4.804;2023-03-31T07:00:14;99141.19;;;18.29
74321;BMP280;62738;45.772;4.804;2023-03-31T07:02:41;99142.69;;;18.32
74321;BMP280;62738;45.772;4.804;2023-03-31T07:05:08;99143.38;;;18.64
74321;BMP280;62738;45.772;4.804;2023-03-31T07:07:35;99144.91;;;18.67
74321;BMP280;62738;45.772;4.804;2023-03-31T07:10:02;99135.13;;;18.68
74321;BMP280;62738;45.772;4.804;2023-03-31T07:12:31;99142.06;;;18.83
74321;BMP280;62738;45.772;4.804;2023-03-31T07:14:59;99142.25;;;19.05
74321;BMP280;62738;45.772;4.804;2023-03-31T07:17:25;99150.59;;;19.02
74321;BMP280;62738;45.772;4.804;2023-03-31T07:19:52;99152.28;;;19.10
74321;BMP280;62738;45.772;4.804;2023-03-31T07:22:19;99126.00;;;19.38
74321;BMP280;62738;45.772;4.804;2023-03-31T07:24:45;99142.44;;;18.93
74321;BMP280;62738;45.772;4.804;2023-03-31T07:27:12;99151.13;;;18.81
74321;BMP280;62738;45.772;4.804;2023-03-31T07:29:38;99151.31;;;19.03
74321;BMP280;62738;45.772;4.804;2023-03-31T07:32:05;99155.56;;;18.86
74321;BMP280;62738;45.772;4.804;2023-03-31T07:34:32;99159.22;;;18.73
74321;BMP280;62738;45.772;4.804;2023-03-31T07:37:02;99166.56;;;18.98
74321;BMP280;62738;45.772;4.804;2023-03-31T07:39:29;99153.69;;;18.93
74321;BMP280;62738;45.772;4.804;2023-03-31T07:41:55;99145.59;;;18.83
74321;BMP280;62738;45.772;4.804;2023-03-31T07:44:22;99140.16;;;18.87
74321;BMP280;62738;45.772;4.804;2023-03-31T07:46:49;99138.91;;;18.92
74321;BMP280;62738;45.772;4.804;2023-03-31T07:49:15;99152.97;;;18.92
74321;BMP280;62738;45.772;4.804;2023-03-31T07:51:42;99152.81;;;18.88
74321;BMP280;62738;45.772;4.804;2023-03-31T07:54:09;99161.75;;;18.67
74321;BMP280;62738;45.772;4.804;2023-03-31T07:56:36;99164.28;;;18.61
74321;BMP280;62738;45.772;4.804;2023-03-31T07:59:03;99180.47;;;18.14
74321;BMP280;62738;45.772;4.804;2023-03-31T08:01:29;99186.56;;;18.08
74321;BMP280;62738;45.772;4.804;2023-03-31T08:03:56;99175.94;;;18.53
74321;BMP280;62738;45.772;4.804;2023-03-31T08:06:25;99165.59;;;18.91
74321;BMP280;62738;45.772;4.804;2023-03-31T08:08:52;99168.91;;;19.04
74321;BMP280;62738;45.772;4.804;2023-03-31T08:11:19;99174.69;;;19.08
74321;BMP280;62738;45.772;4.804;2023-03-31T08:13:46;99176.47;;;19.17
74321;BMP280;62738;45.772;4.804;2023-03-31T08:16:13;99169.22;;;19.29
74321;BMP280;62738;45.772;4.804;2023-03-31T08:18:40;99160.78;;;19.29
74321;BMP280;62738;45.772;4.804;2023-03-31T08:21:07;99164.50;;;19.52
74321;BMP280;62738;45.772;4.804;2023-03-31T08:23:35;99162.78;;;19.62
74321;BMP280;62738;45.772;4.804;2023-03-31T08:26:17;99153.53;;;19.60
74321;BMP280;62738;45.772;4.804;2023-03-31T08:28:45;99165.22;;;19.17
74321;BMP280;62738;45.772;4.804;2023-03-31T08:31:11;99169.69;;;18.88
74321;BMP280;62738;45.772;4.804;2023-03-31T08:33:42;99155.59;;;18.71
74321;BMP280;62738;45.772;4.804;2023-03-31T08:36:09;99153.06;;;18.94
74321;BMP280;62738;45.772;4.804;2023-03-31T08:38:37;99162.59;;;19.21
74321;BMP280;62738;45.772;4.804;2023-03-31T08:41:05;99169.16;;;19.10
74321;BMP280;62738;45.772;4.804;2023-03-31T08:43:40;99175.41;;;19.08
74321;BMP280;62738;45.772;4.804;2023-03-31T08:46:14;99160.00;;;19.27
74321;BMP280;62738;45.772;4.804;2023-03-31T08:48:45;99169.88;;;19.28
74321;BMP280;62738;45.772;4.804;2023-03-31T08:51:21;99155.03;;;19.43
74321;BMP280;62738;45.772;4.804;2023-03-31T08:53:54;99143.56;;;19.57
74321;BMP280;62738;45.772;4.804;2023-03-31T08:56:24;99160.63;;;19.25
74321;BMP280;62738;45.772;4.804;2023-03-31T08:58:52;99142.94;;;19.58
74321;BMP280;62738;45.772;4.804;2023-03-31T09:01:55;99139.72;;;19.66
74321;BMP280;62738;45.772;4.804;2023-03-31T09:04:35;99152.19;;;19.98
74321;BMP280;62738;45.772;4.804;2023-03-31T09:12:24;99127.03;;;19.29
74321;BMP280;62738;45.772;4.804;2023-03-31T09:14:59;99128.41;;;19.11
74321;BMP280;62738;45.772;4.804;2023-03-31T09:17:34;99144.25;;;19.20
74321;BMP280;62738;45.772;4.804;2023-03-31T09:20:13;99129.41;;;19.17
74321;BMP280;62738;45.772;4.804;2023-03-31T09:22:46;99128.13;;;19.20
74321;BMP280;62738;45.772;4.804;2023-03-31T09:25:19;99123.44;;;19.44
74321;BMP280;62738;45.772;4.804;2023-03-31T09:27:49;99119.84;;;19.62
74321;BMP280;62738;45.772;4.804;2023-03-31T09:30:30;99105.16;;;19.63
74321;BMP280;62738;45.772;4.804;2023-03-31T09:33:08;99116.84;;;19.38
74321;BMP280;62738;45.772;4.804;2023-03-31T09:35:36;99114.69;;;19.36
74321;BMP280;62738;45.772;4.804;2023-03-31T09:38:03;99106.72;;;19.31
74321;BMP280;62738;45.772;4.804;2023-03-31T09:40:30;99095.38;;;19.46
74321;BMP280;62738;45.772;4.804;2023-03-31T09:45:29;99092.19;;;19.93
74321;BMP280;62738;45.772;4.804;2023-03-31T09:47:58;99093.69;;;19.96
74321;BMP280;62738;45.772;4.804;2023-03-31T09:50:28;99095.88;;;19.78
74321;BMP280;62738;45.772;4.804;2023-03-31T09:52:57;99081.63;;;19.55
74321;BMP280;62738;45.772;4.804;2023-03-31T09:55:33;99092.25;;;19.38
74321;BMP280;62738;45.772;4.804;2023-03-31T09:58:07;99107.25;;;19.63
74321;BMP280;62738;45.772;4.804;2023-03-31T10:00:34;99099.06;;;19.33
74321;BMP280;62738;45.772;4.804;2023-03-31T10:03:03;99095.56;;;19.15
74321;BMP280;62738;45.772;4.804;2023-03-31T10:05:35;99106.97;;;19.01
74321;BMP280;62738;45.772;4.804;2023-03-31T10:08:28;99095.66;;;18.99
74321;BMP280;62738;45.772;4.804;2023-03-31T10:16:05;99089.41;;;19.19
74321;BMP280;62738;45.772;4.804;2023-03-31T10:18:40;99113.09;;;19.14
74321;BMP280;62738;45.772;4.804;2023-03-31T10:21:20;99091.16;;;19.10
74321;BMP280;62738;45.772;4.804;2023-03-31T10:23:49;99096.59;;;19.24
74321;BMP280;62738;45.772;4.804;2023-03-31T10:26:21;99099.34;;;19.22
74321;BMP280;62738;45.772;4.804;2023-03-31T10:28:49;99081.16;;;19.42
74321;BMP280;62738;45.772;4.804;2023-03-31T10:31:24;99076.09;;;19.76
74321;BMP280;62738;45.772;4.804;2023-03-31T10:33:52;99087.78;;;19.88
74321;BMP280;62738;45.772;4.804;2023-03-31T10:36:26;99096.81;;;20.05
74321;BMP280;62738;45.772;4.804;2023-03-31T10:38:54;99091.66;;;20.19
74321;BMP280;62738;45.772;4.804;2023-03-31T10:41:24;99071.53;;;20.48
74321;BMP280;62738;45.772;4.804;2023-03-31T10:43:54;99061.16;;;20.76
74321;BMP280;62738;45.772;4.804;2023-03-31T10:46:48;99055.97;;;20.90
74321;BMP280;62738;45.772;4.804;2023-03-31T10:51:52;99078.00;;;20.96
74321;BMP280;62738;45.772;4.804;2023-03-31T10:54:18;99069.19;;;21.08
74321;BMP280;62738;45.772;4.804;2023-03-31T10:56:47;99076.47;;;21.15
74321;BMP280;62738;45.772;4.804;2023-03-31T10:59:41;99065.09;;;21.34
74321;BMP280;62738;45.772;4.804;2023-03-31T11:07:53;99051.91;;;20.95
74321;BMP280;62738;45.772;4.804;2023-03-31T11:18:47;99045.13;;;20.37
74321;BMP280;62738;45.772;4.804;2023-03-31T11:29:21;99032.06;;;20.26
74321;BMP280;62738;45.772;4.804;2023-03-31T11:35:05;99032.63;;;20.64
74321;BMP280;62738;45.772;4.804;2023-03-31T11:40:36;99046.03;;;20.22
74321;BMP280;62738;45.772;4.804;2023-03-31T11:48:50;99039.81;;;20.26
74321;BMP280;62738;45.772;4.804;2023-03-31T11:51:27;99042.38;;;20.39
74321;BMP280;62738;45.772;4.804;2023-03-31T11:53:57;99029.53;;;20.34
74321;BMP280;62738;45.772;4.804;2023-03-31T11:56:32;99058.13;;;20.05
74321;BMP280;62738;45.772;4.804;2023-03-31T11:59:02;99045.28;;;19.80
74321;BMP280;62738;45.772;4.804;2023-03-31T12:01:40;99037.09;;;20.08
74321;BMP280;62738;45.772;4.804;2023-03-31T12:06:51;99027.63;;;20.00
74321;BMP280;62738;45.772;4.804;2023-03-31T12:12:13;99045.75;;;19.94
74321;BMP280;62738;45.772;4.804;2023-03-31T12:14:47;99040.34;;;19.81
74321;BMP280;62738;45.772;4.804;2023-03-31T12:17:42;99053.59;;;19.76
74321;BMP280;62738;45.772;4.804;2023-03-31T12:20:19;99052.19;;;19.58
74321;BMP280;62738;45.772;4.804;2023-03-31T12:22:48;99042.06;;;19.51
74321;BMP280;62738;45.772;4.804;2023-03-31T12:25:19;99045.63;;;19.71
74321;BMP280;62738;45.772;4.804;2023-03-31T12:27:51;99029.69;;;19.77
74321;BMP280;62738;45.772;4.804;2023-03-31T12:30:33;99045.16;;;19.76
74321;BMP280;62738;45.772;4.804;2023-03-31T12:33:32;99029.16;;;19.83
74321;BMP280;62738;45.772;4.804;2023-03-31T12:39:01;99032.34;;;19.93
74321;BMP280;62738;45.772;4.804;2023-03-31T12:50:51;99052.66;;;20.31
74321;BMP280;62738;45.772;4.804;2023-03-31T12:56:07;99016.28;;;20.17
74321;BMP280;62738;45.772;4.804;2023-03-31T12:58:38;99024.69;;;20.37
74321;BMP280;62738;45.772;4.804;2023-03-31T13:01:22;99047.88;;;20.57
74321;BMP280;62738;45.772;4.804;2023-03-31T13:09:05;99030.84;;;20.31
74321;BMP280;62738;45.772;4.804;2023-03-31T13:11:39;99013.66;;;20.23
74321;BMP280;62738;45.772;4.804;2023-03-31T13:14:21;99037.31;;;19.94
74321;BMP280;62738;45.772;4.804;2023-03-31T13:16:49;99015.22;;;20.07
74321;BMP280;62738;45.772;4.804;2023-03-31T13:19:31;99004.97;;;20.37
74321;BMP280;62738;45.772;4.804;2023-03-31T13:21:59;99007.38;;;20.46
74321;BMP280;62738;45.772;4.804;2023-03-31T13:24:29;99006.41;;;20.38
74321;BMP280;62738;45.772;4.804;2023-03-31T13:26:58;99027.22;;;20.51
74321;BMP280;62738;45.772;4.804;2023-03-31T13:29:44;99012.88;;;20.64
74321;BMP280;62738;45.772;4.804;2023-03-31T13:32:19;99006.28;;;20.79
74321;BMP280;62738;45.772;4.804;2023-03-31T13:35:05;99011.94;;;20.79
74321;BMP280;62738;45.772;4.804;2023-03-31T13:52:03;99010.34;;;20.72
74321;BMP280;62738;45.772;4.804;2023-03-31T14:05:38;98990.59;;;20.07
74321;BMP280;62738;45.772;4.804;2023-03-31T14:08:19;98991.84;;;20.24
74321;BMP280;62738;45.772;4.804;2023-03-31T14:10:49;98981.34;;;19.63
74321;BMP280;62738;45.772;4.804;2023-03-31T14:13:18;98979.81;;;19.60
74321;BMP280;62738;45.772;4.804;2023-03-31T14:15:51;98991.97;;;19.86
74321;BMP280;62738;45.772;4.804;2023-03-31T14:18:30;98972.69;;;19.98
74321;BMP280;62738;45.772;4.804;2023-03-31T14:26:50;98971.59;;;20.08
74321;BMP280;62738;45.772;4.804;2023-03-31T14:29:47;98974.38;;;20.27
74321;BMP280;62738;45.772;4.804;2023-03-31T14:35:11;98971.47;;;20.47
74321;BMP280;62738;45.772;4.804;2023-03-31T14:37:43;98987.72;;;19.85
74321;BMP280;62738;45.772;4.804;2023-03-31T14:40:14;98983.06;;;19.53
74321;BMP280;62738;45.772;4.804;2023-03-31T14:42:43;98987.25;;;19.71
74321;BMP280;62738;45.772;4.804;2023-03-31T14:45:19;98988.91;;;19.98
74321;BMP280;62738;45.772;4.804;2023-03-31T14:48:13;98997.53;;;20.04
74321;BMP280;62738;45.772;4.804;2023-03-31T14:50:45;98987.44;;;19.97
74321;BMP280;62738;45.772;4.804;2023-03-31T14:53:16;98981.31;;;19.83
74321;BMP280;62738;45.772;4.804;2023-03-31T14:55:44;98969.31;;;19.80
74321;BMP280;62738;45.772;4.804;2023-03-31T14:58:36;98965.38;;;19.89
74321;BMP280;62738;45.772;4.804;2023-03-31T15:01:06;98959.72;;;20.09
74321;BMP280;62738;45.772;4.804;2023-03-31T15:03:35;98969.38;;;20.04
74321;BMP280;62738;45.772;4.804;2023-03-31T15:06:04;98964.03;;;20.12
74321;BMP280;62738;45.772;4.804;2023-03-31T15:08:31;98966.84;;;20.34
74321;BMP280;62738;45.772;4.804;2023-03-31T15:11:01;98965.25;;;20.29
74321;BMP280;62738;45.772;4.804;2023-03-31T15:13:46;98976.72;;;19.72
74321;BMP280;62738;45.772;4.804;2023-03-31T15:18:59;98974.31;;;19.25
74321;BMP280;62738;45.772;4.804;2023-03-31T15:21:29;98973.91;;;18.95
74321;BMP280;62738;45.772;4.804;2023-03-31T15:23:57;98992.72;;;18.90
74321;BMP280;62738;45.772;4.804;2023-03-31T15:26:34;98990.63;;;18.73
74321;BMP280;62738;45.772;4.804;2023-03-31T15:29:19;99006.69;;;18.53
74321;BMP280;62738;45.772;4.804;2023-03-31T15:31:47;99046.75;;;18.38
74321;BMP280;62738;45.772;4.804;2023-03-31T15:34:40;99049.38;;;18.00
74321;BMP280;62738;45.772;4.804;2023-03-31T15:37:06;99061.97;;;17.99
74321;BMP280;62738;45.772;4.804;2023-03-31T15:39:35;99112.69;;;17.88
74321;BMP280;62738;45.772;4.804;2023-03-31T15:42:04;99158.78;;;17.53
74321;BMP280;62738;45.772;4.804;2023-03-31T15:44:43;99227.31;;;13.89
74321;BMP280;62738;45.772;4.804;2023-03-31T15:47:23;99214.13;;;12.95
74321;BMP280;62738;45.772;4.804;2023-03-31T15:49:57;99199.00;;;13.07
74321;BMP280;62738;45.772;4.804;2023-03-31T15:52:33;99168.38;;;13.07
74321;BMP280;62738;45.772;4.804;2023-03-31T15:55:04;99179.84;;;13.23
74321;BMP280;62738;45.772;4.804;2023-03-31T15:57:49;99174.50;;;13.48
74321;BMP280;62738;45.772;4.804;2023-03-31T16:00:42;99172.78;;;13.65
74321;BMP280;62738;45.772;4.804;2023-03-31T16:03:25;99119.19;;;13.54
74321;BMP280;62738;45.772;4.804;2023-03-31T16:05:56;99101.94;;;13.91
74321;BMP280;62738;45.772;4.804;2023-03-31T16:08:40;99094.22;;;14.36
74321;BMP280;62738;45.772;4.804;2023-03-31T16:11:17;99090.66;;;14.82
74321;BMP280;62738;45.772;4.804;2023-03-31T16:13:49;99083.63;;;15.43
74321;BMP280;62738;45.772;4.804;2023-03-31T16:16:18;99079.44;;;15.69
74321;BMP280;62738;45.772;4.804;2023-03-31T16:18:50;99087.53;;;16.30
74321;BMP280;62738;45.772;4.804;2023-03-31T16:21:25;99086.78;;;16.56
74321;BMP280;62738;45.772;4.804;2023-03-31T16:23:58;99092.84;;;17.23
74321;BMP280;62738;45.772;4.804;2023-03-31T16:26:26;99077.47;;;17.85
74321;BMP280;62738;45.772;4.804;2023-03-31T16:28:54;99085.59;;;18.26
74321;BMP280;62738;45.772;4.804;2023-03-31T16:31:35;99085.06;;;18.47
74321;BMP280;62738;45.772;4.804;2023-03-31T16:34:05;99104.28;;;18.70
74321;BMP280;62738;45.772;4.804;2023-03-31T16:36:32;99094.09;;;18.79
74321;BMP280;62738;45.772;4.804;2023-03-31T16:38:59;99102.00;;;18.82
74321;BMP280;62738;45.772;4.804;2023-03-31T16:41:28;99103.81;;;18.76
74321;BMP280;62738;45.772;4.804;2023-03-31T16:43:55;99114.25;;;18.73
74321;BMP280;62738;45.772;4.804;2023-03-31T16:46:22;99124.25;;;18.12
74321;BMP280;62738;45.772;4.804;2023-03-31T16:48:50;99158.75;;;17.38
74321;BMP280;62738;45.772;4.804;2023-03-31T16:51:17;99176.50;;;16.72
74321;BMP280;62738;45.772;4.804;2023-03-31T16:53:45;99140.94;;;16.34
74321;BMP280;62738;45.772;4.804;2023-03-31T16:56:12;99165.75;;;15.50
74321;BMP280;62738;45.772;4.804;2023-03-31T16:58:39;99193.13;;;14.91
74321;BMP280;62738;45.772;4.804;2023-03-31T17:01:07;99163.03;;;14.89
74321;BMP280;62738;45.772;4.804;2023-03-31T17:03:34;99147.78;;;15.04